Nearby METAR Reports

 

EGUW - Wattisham Raf, United Kingdom
Distance from station: SW 12mi, 19km
Updated: 13/04/2021 14:50
Clear
Clear
 Wind from WNW
Wind: WNW 10 mph , 17 km/h
Temperature: 11°C
Dew Point: -4°C
Humidity: 35%
Barometer: 1031 hPa
Summary: Clear
Visibility: greater than 7 miles , 10 km
2021/04/13 13:50 EGUW 131350Z 29009KT CAVOK 11/M04 Q1031 NOSIG RMK BLU BLU
EGUL - Lakenheath Raf, United Kingdom
Distance from station: WNW 29mi, 47km
Updated: 13/04/2021 14:56
Few Clouds
Few Clouds
 Wind from NW
Wind: NW 6 mph , 9 km/h
Temperature: 11°C
Dew Point: -8°C
Humidity: 26%
Barometer: 1031.5 hPa
Clouds: Few Clouds
Visibility: 6 miles , 10 km
Cloud details: Few Clouds 1829 m
2021/04/13 13:56 EGUL 131356Z AUTO 32005KT 9999 FEW060 11/M08 A3046 RMK AO2 SLP319 T01071076 $
 
EGUN - Mildenhall Raf, United Kingdom
Distance from station: WNW 32mi, 51km
Updated: 13/04/2021 14:56
Partly cloudy
Partly cloudy
 Wind from NNW
Wind: NNW 9 mph , 15 km/h
Temperature: 12°C
Dew Point: -4°C
Humidity: 33%
Barometer: 1031.8 hPa
Clouds: Partly cloudy
Visibility: 6 miles , 10 km
Cloud details: Partly cloudy 2134 m
2021/04/13 13:56 EGUN 131356Z AUTO 34008KT 9999 SCT070 12/M04 A3047 RMK AO2 SLP322 T01181044 FZRANO VISNO RWY11 $
EGSH - Norwich Wea Cntr, United Kingdom
Distance from station: N 32mi, 52km
Updated: 13/04/2021 14:50
Clear
Clear
 Wind from varies
Wind: varies 5 mph , 7 km/h
Temperature: 11°C
Dew Point: -1°C
Humidity: 44%
Barometer: 1032 hPa
Summary: Clear
Visibility: greater than 7 miles , 10 km
2021/04/13 13:50 EGSH 131350Z VRB04KT CAVOK 11/M01 Q1032 NOSIG
 
EGYM - Marham Raf, United Kingdom
Distance from station: NW 39mi, 62km
Updated: 13/04/2021 15:19
Clear
Clear
 Wind from NW
Wind: NW 10 mph , 17 km/h
Temperature: 10°C
Wind Chill: 8°C
Dew Point: -4°C
Humidity: 37%
Barometer: 1032 hPa
Summary: Clear
Visibility: greater than 7 miles , 10 km
2021/04/13 14:19 EGYM 131419Z 32009KT CAVOK 10/M04 Q1032 NOSIG RMK BLU BLU
EGSC - Cambridge, United Kingdom
Distance from station: W 43mi, 69km
Updated: 13/04/2021 14:50
Clear
Clear
 Wind from N
Wind: N 8 mph , 13 km/h
Temperature: 11°C
Dew Point: -6°C
Humidity: 30%
Barometer: 1032 hPa
Summary: Clear
Visibility: greater than 7 miles , 10 km
2021/04/13 13:50 EGSC 131350Z 36007KT 330V030 CAVOK 11/M06 Q1032
 
EGSS - Stansted Airport, United Kingdom
Distance from station: WSW 47mi, 76km
Updated: 13/04/2021 14:50
Clear
Clear
 Wind from WNW
Wind: WNW 7 mph , 11 km/h
Temperature: 11°C
Dew Point: -2°C
Humidity: 41%
Barometer: 1032 hPa
Summary: Clear
Visibility: greater than 7 miles , 10 km
2021/04/13 13:50 EGSS 131350Z 30006KT 270V340 CAVOK 11/M02 Q1032
EGMC - Southend-On-Sea, United Kingdom
Distance from station: SSW 50mi, 80km
Updated: 13/04/2021 14:50
Clear
Clear
 Wind from S
Wind: S 7 mph , 11 km/h
Temperature: 10°C
Wind Chill: 8°C
Dew Point: -4°C
Humidity: 37%
Barometer: 1032 hPa
Summary: Clear
Visibility: greater than 7 miles , 10 km
2021/04/13 13:50 EGMC 131350Z 19006KT CAVOK 10/M04 Q1032